Terminal Aerodrome Forecast
Issued by NWS

Home | Current Version | Previous Version | Text Only | Print | Product List | Glossary On
Versions: 1 2 3 4 5 6 7 8 9 10 11 12 13 14 15 16
000
FTPQ31 PGUM 281726
TAFGUM
TAF

TAF
PTKK 281726Z 2818/2918 06011KT P6SM VCTS SCT012CB OVC100
      TEMPO 2818/2822 3SM +TSRA BKN012CB OVC040
     FM282200 06014KT P6SM -RA VCSH SCT012 BKN050 OVC100=

USA.gov is the U.S. government's official web portal to all federal, state and local government web resources and services.